sensor_id;sensor_type;location;lat;lon;timestamp;P1;durP1;ratioP1;P2;durP2;ratioP2
73550;SDS011;61816;53.582;10.096;2023-11-21T00:02:13;41.50;;;20.02;;
73550;SDS011;61816;53.582;10.096;2023-11-21T00:04:39;45.08;;;21.58;;
73550;SDS011;61816;53.582;10.096;2023-11-21T00:07:04;45.05;;;20.88;;
73550;SDS011;61816;53.582;10.096;2023-11-21T00:09:31;41.17;;;19.77;;
73550;SDS011;61816;53.582;10.096;2023-11-21T00:11:56;44.63;;;20.65;;
73550;SDS011;61816;53.582;10.096;2023-11-21T00:14:22;32.30;;;16.35;;
73550;SDS011;61816;53.582;10.096;2023-11-21T00:16:47;38.05;;;18.17;;
73550;SDS011;61816;53.582;10.096;2023-11-21T00:19:12;41.22;;;18.63;;
73550;SDS011;61816;53.582;10.096;2023-11-21T00:21:38;38.25;;;17.20;;
73550;SDS011;61816;53.582;10.096;2023-11-21T00:24:03;37.67;;;19.40;;
73550;SDS011;61816;53.582;10.096;2023-11-21T00:26:29;38.50;;;19.48;;
73550;SDS011;61816;53.582;10.096;2023-11-21T00:28:56;43.15;;;20.67;;
73550;SDS011;61816;53.582;10.096;2023-11-21T00:31:21;51.10;;;21.52;;
73550;SDS011;61816;53.582;10.096;2023-11-21T00:33:47;48.88;;;22.73;;
73550;SDS011;61816;53.582;10.096;2023-11-21T00:36:12;47.80;;;22.15;;
73550;SDS011;61816;53.582;10.096;2023-11-21T00:38:37;49.38;;;23.42;;
73550;SDS011;61816;53.582;10.096;2023-11-21T00:41:05;63.67;;;27.08;;
73550;SDS011;61816;53.582;10.096;2023-11-21T00:43:31;76.05;;;27.85;;
73550;SDS011;61816;53.582;10.096;2023-11-21T00:45:58;83.60;;;32.35;;
73550;SDS011;61816;53.582;10.096;2023-11-21T00:48:23;75.75;;;31.95;;
73550;SDS011;61816;53.582;10.096;2023-11-21T00:50:49;80.95;;;31.77;;
73550;SDS011;61816;53.582;10.096;2023-11-21T00:53:15;83.07;;;31.98;;
73550;SDS011;61816;53.582;10.096;2023-11-21T00:55:40;83.80;;;34.10;;
73550;SDS011;61816;53.582;10.096;2023-11-21T00:58:06;84.70;;;36.55;;
73550;SDS011;61816;53.582;10.096;2023-11-21T01:00:32;83.57;;;32.95;;
73550;SDS011;61816;53.582;10.096;2023-11-21T01:03:00;92.30;;;35.08;;
73550;SDS011;61816;53.582;10.096;2023-11-21T01:05:26;111.22;;;37.95;;
73550;SDS011;61816;53.582;10.096;2023-11-21T01:07:52;84.05;;;34.30;;
73550;SDS011;61816;53.582;10.096;2023-11-21T01:10:17;87.85;;;33.95;;
73550;SDS011;61816;53.582;10.096;2023-11-21T01:12:42;81.50;;;34.90;;
73550;SDS011;61816;53.582;10.096;2023-11-21T01:15:08;71.88;;;32.10;;
73550;SDS011;61816;53.582;10.096;2023-11-21T01:17:33;56.92;;;30.08;;
73550;SDS011;61816;53.582;10.096;2023-11-21T01:20:00;60.65;;;29.65;;
73550;SDS011;61816;53.582;10.096;2023-11-21T01:22:26;64.90;;;29.05;;
73550;SDS011;61816;53.582;10.096;2023-11-21T01:24:54;59.28;;;28.30;;
73550;SDS011;61816;53.582;10.096;2023-11-21T01:27:19;60.90;;;28.83;;
73550;SDS011;61816;53.582;10.096;2023-11-21T01:29:47;55.45;;;27.25;;
73550;SDS011;61816;53.582;10.096;2023-11-21T01:32:13;47.83;;;24.52;;
73550;SDS011;61816;53.582;10.096;2023-11-21T01:34:38;52.97;;;24.10;;
73550;SDS011;61816;53.582;10.096;2023-11-21T01:37:06;52.38;;;24.67;;
73550;SDS011;61816;53.582;10.096;2023-11-21T01:39:31;42.03;;;22.50;;
73550;SDS011;61816;53.582;10.096;2023-11-21T01:41:57;41.30;;;22.85;;
73550;SDS011;61816;53.582;10.096;2023-11-21T01:44:26;39.03;;;20.73;;
73550;SDS011;61816;53.582;10.096;2023-11-21T01:46:51;38.30;;;21.30;;
73550;SDS011;61816;53.582;10.096;2023-11-21T01:49:17;39.55;;;19.98;;
73550;SDS011;61816;53.582;10.096;2023-11-21T01:51:47;40.72;;;21.25;;
73550;SDS011;61816;53.582;10.096;2023-11-21T01:54:14;34.67;;;19.05;;
73550;SDS011;61816;53.582;10.096;2023-11-21T01:56:47;36.00;;;18.00;;
73550;SDS011;61816;53.582;10.096;2023-11-21T01:59:19;34.15;;;18.42;;
73550;SDS011;61816;53.582;10.096;2023-11-21T02:01:49;33.05;;;17.20;;
73550;SDS011;61816;53.582;10.096;2023-11-21T02:04:21;30.25;;;16.73;;
73550;SDS011;61816;53.582;10.096;2023-11-21T02:06:46;30.65;;;18.13;;
73550;SDS011;61816;53.582;10.096;2023-11-21T02:09:12;31.90;;;18.92;;
73550;SDS011;61816;53.582;10.096;2023-11-21T02:11:40;30.45;;;16.05;;
73550;SDS011;61816;53.582;10.096;2023-11-21T02:14:05;33.13;;;17.55;;
73550;SDS011;61816;53.582;10.096;2023-11-21T02:16:34;33.78;;;17.00;;
73550;SDS011;61816;53.582;10.096;2023-11-21T02:18:59;30.73;;;16.15;;
73550;SDS011;61816;53.582;10.096;2023-11-21T02:21:25;32.42;;;17.23;;
73550;SDS011;61816;53.582;10.096;2023-11-21T02:23:50;26.63;;;14.70;;
73550;SDS011;61816;53.582;10.096;2023-11-21T02:26:16;30.42;;;17.65;;
73550;SDS011;61816;53.582;10.096;2023-11-21T02:28:42;31.27;;;16.67;;
73550;SDS011;61816;53.582;10.096;2023-11-21T02:31:07;27.67;;;15.68;;
73550;SDS011;61816;53.582;10.096;2023-11-21T02:33:33;27.30;;;14.45;;
73550;SDS011;61816;53.582;10.096;2023-11-21T02:36:02;30.00;;;15.98;;
73550;SDS011;61816;53.582;10.096;2023-11-21T02:38:27;26.65;;;15.10;;
73550;SDS011;61816;53.582;10.096;2023-11-21T02:40:58;26.83;;;14.43;;
73550;SDS011;61816;53.582;10.096;2023-11-21T02:43:24;30.00;;;15.13;;
73550;SDS011;61816;53.582;10.096;2023-11-21T02:45:49;20.70;;;12.25;;
73550;SDS011;61816;53.582;10.096;2023-11-21T02:48:15;26.48;;;13.45;;
73550;SDS011;61816;53.582;10.096;2023-11-21T02:50:40;24.10;;;13.80;;
73550;SDS011;61816;53.582;10.096;2023-11-21T02:53:05;23.90;;;13.95;;
73550;SDS011;61816;53.582;10.096;2023-11-21T02:55:31;23.35;;;13.35;;
73550;SDS011;61816;53.582;10.096;2023-11-21T02:57:59;22.80;;;14.25;;
73550;SDS011;61816;53.582;10.096;2023-11-21T03:00:28;24.65;;;14.43;;
73550;SDS011;61816;53.582;10.096;2023-11-21T03:02:54;30.10;;;14.65;;
73550;SDS011;61816;53.582;10.096;2023-11-21T03:05:42;25.40;;;13.60;;
73550;SDS011;61816;53.582;10.096;2023-11-21T03:08:08;23.33;;;13.15;;
73550;SDS011;61816;53.582;10.096;2023-11-21T03:10:33;31.83;;;13.55;;
73550;SDS011;61816;53.582;10.096;2023-11-21T03:12:58;22.10;;;13.50;;
73550;SDS011;61816;53.582;10.096;2023-11-21T03:15:26;23.98;;;15.10;;
73550;SDS011;61816;53.582;10.096;2023-11-21T03:17:52;24.23;;;13.35;;
73550;SDS011;61816;53.582;10.096;2023-11-21T03:20:19;28.20;;;14.38;;
73550;SDS011;61816;53.582;10.096;2023-11-21T03:22:45;23.73;;;14.20;;
73550;SDS011;61816;53.582;10.096;2023-11-21T03:25:10;25.65;;;14.82;;
73550;SDS011;61816;53.582;10.096;2023-11-21T03:27:36;25.02;;;13.45;;
73550;SDS011;61816;53.582;10.096;2023-11-21T03:30:02;22.98;;;12.98;;
73550;SDS011;61816;53.582;10.096;2023-11-21T03:32:29;22.05;;;13.48;;
73550;SDS011;61816;53.582;10.096;2023-11-21T03:34:54;25.77;;;13.82;;
73550;SDS011;61816;53.582;10.096;2023-11-21T03:37:21;26.80;;;15.02;;
73550;SDS011;61816;53.582;10.096;2023-11-21T03:39:47;21.92;;;13.38;;
73550;SDS011;61816;53.582;10.096;2023-11-21T03:42:12;26.27;;;13.60;;
73550;SDS011;61816;53.582;10.096;2023-11-21T03:44:37;20.10;;;11.88;;
73550;SDS011;61816;53.582;10.096;2023-11-21T03:47:03;23.48;;;12.98;;
73550;SDS011;61816;53.582;10.096;2023-11-21T03:49:32;20.83;;;12.68;;
73550;SDS011;61816;53.582;10.096;2023-11-21T03:51:57;24.13;;;12.57;;
73550;SDS011;61816;53.582;10.096;2023-11-21T03:54:28;23.05;;;13.68;;
73550;SDS011;61816;53.582;10.096;2023-11-21T03:56:53;22.55;;;12.90;;
73550;SDS011;61816;53.582;10.096;2023-11-21T03:59:18;20.77;;;12.10;;
73550;SDS011;61816;53.582;10.096;2023-11-21T04:01:44;21.48;;;13.48;;
73550;SDS011;61816;53.582;10.096;2023-11-21T04:04:09;25.38;;;13.48;;
73550;SDS011;61816;53.582;10.096;2023-11-21T04:06:35;27.80;;;14.88;;
73550;SDS011;61816;53.582;10.096;2023-11-21T04:09:02;24.75;;;14.45;;
73550;SDS011;61816;53.582;10.096;2023-11-21T04:11:29;22.27;;;12.00;;
73550;SDS011;61816;53.582;10.096;2023-11-21T04:13:55;21.52;;;13.57;;
73550;SDS011;61816;53.582;10.096;2023-11-21T04:16:20;31.13;;;15.25;;
73550;SDS011;61816;53.582;10.096;2023-11-21T04:18:45;31.95;;;16.23;;
73550;SDS011;61816;53.582;10.096;2023-11-21T04:21:11;28.20;;;16.45;;
73550;SDS011;61816;53.582;10.096;2023-11-21T04:23:36;28.98;;;14.90;;
73550;SDS011;61816;53.582;10.096;2023-11-21T04:26:01;30.77;;;16.00;;
73550;SDS011;61816;53.582;10.096;2023-11-21T04:28:27;26.63;;;16.52;;
73550;SDS011;61816;53.582;10.096;2023-11-21T04:30:52;29.02;;;15.52;;
73550;SDS011;61816;53.582;10.096;2023-11-21T04:33:18;28.50;;;14.48;;
73550;SDS011;61816;53.582;10.096;2023-11-21T04:35:43;26.45;;;13.50;;
73550;SDS011;61816;53.582;10.096;2023-11-21T04:38:09;26.23;;;13.98;;
73550;SDS011;61816;53.582;10.096;2023-11-21T04:40:34;25.85;;;15.55;;
73550;SDS011;61816;53.582;10.096;2023-11-21T04:42:59;24.88;;;14.77;;
73550;SDS011;61816;53.582;10.096;2023-11-21T04:45:25;27.00;;;15.00;;
73550;SDS011;61816;53.582;10.096;2023-11-21T04:47:50;26.27;;;14.82;;
73550;SDS011;61816;53.582;10.096;2023-11-21T04:50:16;26.02;;;15.48;;
73550;SDS011;61816;53.582;10.096;2023-11-21T04:52:41;29.23;;;15.55;;
73550;SDS011;61816;53.582;10.096;2023-11-21T04:55:06;25.73;;;15.38;;
73550;SDS011;61816;53.582;10.096;2023-11-21T04:57:35;29.00;;;15.38;;
73550;SDS011;61816;53.582;10.096;2023-11-21T05:00:01;25.08;;;15.02;;
73550;SDS011;61816;53.582;10.096;2023-11-21T05:02:30;27.35;;;16.20;;
73550;SDS011;61816;53.582;10.096;2023-11-21T05:04:56;25.17;;;15.77;;
73550;SDS011;61816;53.582;10.096;2023-11-21T05:07:22;23.92;;;13.82;;
73550;SDS011;61816;53.582;10.096;2023-11-21T05:09:47;22.80;;;15.05;;
73550;SDS011;61816;53.582;10.096;2023-11-21T05:12:13;26.63;;;14.88;;
73550;SDS011;61816;53.582;10.096;2023-11-21T05:14:39;21.77;;;13.23;;
73550;SDS011;61816;53.582;10.096;2023-11-21T05:17:05;26.08;;;14.10;;
73550;SDS011;61816;53.582;10.096;2023-11-21T05:19:30;21.88;;;14.23;;
73550;SDS011;61816;53.582;10.096;2023-11-21T05:21:55;22.00;;;13.45;;
73550;SDS011;61816;53.582;10.096;2023-11-21T05:24:21;22.33;;;13.25;;
73550;SDS011;61816;53.582;10.096;2023-11-21T05:26:47;26.55;;;15.13;;
73550;SDS011;61816;53.582;10.096;2023-11-21T05:29:12;29.00;;;13.32;;
73550;SDS011;61816;53.582;10.096;2023-11-21T05:31:37;22.95;;;14.57;;
73550;SDS011;61816;53.582;10.096;2023-11-21T05:34:03;25.67;;;13.95;;
73550;SDS011;61816;53.582;10.096;2023-11-21T05:36:30;19.05;;;13.02;;
73550;SDS011;61816;53.582;10.096;2023-11-21T05:38:55;22.45;;;14.02;;
73550;SDS011;61816;53.582;10.096;2023-11-21T05:41:21;28.98;;;14.80;;
73550;SDS011;61816;53.582;10.096;2023-11-21T05:43:46;23.10;;;13.50;;
73550;SDS011;61816;53.582;10.096;2023-11-21T05:46:11;23.50;;;13.85;;
73550;SDS011;61816;53.582;10.096;2023-11-21T05:48:38;20.75;;;12.80;;
73550;SDS011;61816;53.582;10.096;2023-11-21T05:51:07;29.40;;;14.75;;
73550;SDS011;61816;53.582;10.096;2023-11-21T05:53:33;25.33;;;15.40;;
73550;SDS011;61816;53.582;10.096;2023-11-21T05:55:59;24.00;;;15.88;;
73550;SDS011;61816;53.582;10.096;2023-11-21T05:58:24;26.40;;;14.65;;
73550;SDS011;61816;53.582;10.096;2023-11-21T06:00:49;23.25;;;13.32;;
73550;SDS011;61816;53.582;10.096;2023-11-21T06:03:15;24.60;;;13.57;;
73550;SDS011;61816;53.582;10.096;2023-11-21T06:05:40;23.40;;;14.25;;
73550;SDS011;61816;53.582;10.096;2023-11-21T06:08:05;19.88;;;12.82;;
73550;SDS011;61816;53.582;10.096;2023-11-21T06:10:32;22.27;;;13.43;;
73550;SDS011;61816;53.582;10.096;2023-11-21T06:13:00;24.95;;;14.30;;
73550;SDS011;61816;53.582;10.096;2023-11-21T06:15:26;22.30;;;14.75;;
73550;SDS011;61816;53.582;10.096;2023-11-21T06:17:51;22.02;;;14.77;;
73550;SDS011;61816;53.582;10.096;2023-11-21T06:20:17;23.15;;;15.25;;
73550;SDS011;61816;53.582;10.096;2023-11-21T06:22:44;23.67;;;14.10;;
73550;SDS011;61816;53.582;10.096;2023-11-21T06:25:11;23.05;;;13.35;;
73550;SDS011;61816;53.582;10.096;2023-11-21T06:27:44;23.48;;;14.70;;
73550;SDS011;61816;53.582;10.096;2023-11-21T06:30:11;21.30;;;13.52;;
73550;SDS011;61816;53.582;10.096;2023-11-21T06:32:38;26.63;;;15.35;;
73550;SDS011;61816;53.582;10.096;2023-11-21T06:35:05;23.65;;;15.43;;
73550;SDS011;61816;53.582;10.096;2023-11-21T06:37:31;22.50;;;13.65;;
73550;SDS011;61816;53.582;10.096;2023-11-21T06:39:58;23.40;;;13.27;;
73550;SDS011;61816;53.582;10.096;2023-11-21T06:42:28;27.27;;;16.05;;
73550;SDS011;61816;53.582;10.096;2023-11-21T06:44:54;26.67;;;16.20;;
73550;SDS011;61816;53.582;10.096;2023-11-21T06:47:22;26.80;;;15.88;;
73550;SDS011;61816;53.582;10.096;2023-11-21T06:49:51;29.95;;;16.30;;
73550;SDS011;61816;53.582;10.096;2023-11-21T06:52:17;20.80;;;15.05;;
73550;SDS011;61816;53.582;10.096;2023-11-21T06:54:43;25.08;;;14.80;;
73550;SDS011;61816;53.582;10.096;2023-11-21T06:57:10;24.30;;;13.45;;
73550;SDS011;61816;53.582;10.096;2023-11-21T06:59:36;24.98;;;14.27;;
73550;SDS011;61816;53.582;10.096;2023-11-21T07:02:01;24.80;;;14.85;;
73550;SDS011;61816;53.582;10.096;2023-11-21T07:04:26;35.20;;;21.95;;
73550;SDS011;61816;53.582;10.096;2023-11-21T07:06:53;22.63;;;14.23;;
73550;SDS011;61816;53.582;10.096;2023-11-21T07:09:19;23.75;;;13.70;;
73550;SDS011;61816;53.582;10.096;2023-11-21T07:11:47;19.55;;;13.15;;
73550;SDS011;61816;53.582;10.096;2023-11-21T07:14:13;18.25;;;12.70;;
73550;SDS011;61816;53.582;10.096;2023-11-21T07:16:42;25.00;;;13.60;;
73550;SDS011;61816;53.582;10.096;2023-11-21T07:19:08;19.23;;;12.25;;
73550;SDS011;61816;53.582;10.096;2023-11-21T07:21:37;20.77;;;12.75;;
73550;SDS011;61816;53.582;10.096;2023-11-21T07:24:05;19.30;;;12.45;;
73550;SDS011;61816;53.582;10.096;2023-11-21T07:26:31;24.05;;;12.70;;
73550;SDS011;61816;53.582;10.096;2023-11-21T07:29:01;33.13;;;12.43;;
73550;SDS011;61816;53.582;10.096;2023-11-21T07:31:30;21.35;;;13.40;;
73550;SDS011;61816;53.582;10.096;2023-11-21T07:34:02;17.65;;;12.20;;
73550;SDS011;61816;53.582;10.096;2023-11-21T07:36:27;19.50;;;11.80;;
73550;SDS011;61816;53.582;10.096;2023-11-21T07:38:52;20.70;;;12.52;;
73550;SDS011;61816;53.582;10.096;2023-11-21T07:41:35;19.25;;;11.23;;
73550;SDS011;61816;53.582;10.096;2023-11-21T07:44:01;17.15;;;11.02;;
73550;SDS011;61816;53.582;10.096;2023-11-21T07:46:26;17.05;;;10.82;;
73550;SDS011;61816;53.582;10.096;2023-11-21T07:48:52;19.85;;;11.10;;
73550;SDS011;61816;53.582;10.096;2023-11-21T07:51:18;21.13;;;10.82;;
73550;SDS011;61816;53.582;10.096;2023-11-21T07:53:46;20.42;;;10.60;;
73550;SDS011;61816;53.582;10.096;2023-11-21T07:56:11;15.02;;;9.05;;
73550;SDS011;61816;53.582;10.096;2023-11-21T07:58:37;14.45;;;10.23;;
73550;SDS011;61816;53.582;10.096;2023-11-21T08:01:03;17.55;;;10.02;;
73550;SDS011;61816;53.582;10.096;2023-11-21T08:03:29;16.40;;;9.93;;
73550;SDS011;61816;53.582;10.096;2023-11-21T08:05:55;14.75;;;9.40;;
73550;SDS011;61816;53.582;10.096;2023-11-21T08:08:22;14.95;;;9.77;;
73550;SDS011;61816;53.582;10.096;2023-11-21T08:10:48;18.42;;;10.70;;
73550;SDS011;61816;53.582;10.096;2023-11-21T08:13:23;17.33;;;9.85;;
73550;SDS011;61816;53.582;10.096;2023-11-21T08:15:56;18.95;;;10.88;;
73550;SDS011;61816;53.582;10.096;2023-11-21T08:18:26;21.10;;;10.25;;
73550;SDS011;61816;53.582;10.096;2023-11-21T08:20:52;17.55;;;9.35;;
73550;SDS011;61816;53.582;10.096;2023-11-21T08:23:17;13.20;;;9.25;;
73550;SDS011;61816;53.582;10.096;2023-11-21T08:25:46;18.73;;;8.68;;
73550;SDS011;61816;53.582;10.096;2023-11-21T08:28:11;14.27;;;9.20;;
73550;SDS011;61816;53.582;10.096;2023-11-21T08:30:39;14.40;;;7.82;;
73550;SDS011;61816;53.582;10.096;2023-11-21T08:33:06;12.18;;;7.35;;
73550;SDS011;61816;53.582;10.096;2023-11-21T08:35:33;21.17;;;11.70;;
73550;SDS011;61816;53.582;10.096;2023-11-21T08:37:59;16.58;;;9.88;;
73550;SDS011;61816;53.582;10.096;2023-11-21T08:40:25;15.07;;;7.57;;
73550;SDS011;61816;53.582;10.096;2023-11-21T08:42:50;16.85;;;8.98;;
73550;SDS011;61816;53.582;10.096;2023-11-21T08:45:17;21.85;;;7.93;;
73550;SDS011;61816;53.582;10.096;2023-11-21T08:47:43;14.90;;;7.80;;
73550;SDS011;61816;53.582;10.096;2023-11-21T08:50:12;12.32;;;7.13;;
73550;SDS011;61816;53.582;10.096;2023-11-21T08:52:38;16.48;;;8.18;;
73550;SDS011;61816;53.582;10.096;2023-11-21T08:55:05;12.95;;;7.55;;
73550;SDS011;61816;53.582;10.096;2023-11-21T08:57:34;13.52;;;7.53;;
73550;SDS011;61816;53.582;10.096;2023-11-21T09:00:00;14.02;;;6.93;;
73550;SDS011;61816;53.582;10.096;2023-11-21T09:02:26;14.60;;;6.55;;
73550;SDS011;61816;53.582;10.096;2023-11-21T09:04:52;14.30;;;6.57;;
73550;SDS011;61816;53.582;10.096;2023-11-21T09:07:18;8.70;;;6.80;;
73550;SDS011;61816;53.582;10.096;2023-11-21T09:09:45;14.07;;;6.20;;
73550;SDS011;61816;53.582;10.096;2023-11-21T09:12:14;8.60;;;6.10;;
73550;SDS011;61816;53.582;10.096;2023-11-21T09:14:40;16.45;;;6.45;;
73550;SDS011;61816;53.582;10.096;2023-11-21T09:17:05;10.60;;;5.65;;
73550;SDS011;61816;53.582;10.096;2023-11-21T09:19:36;12.07;;;6.18;;
73550;SDS011;61816;53.582;10.096;2023-11-21T09:22:02;15.20;;;6.78;;
73550;SDS011;61816;53.582;10.096;2023-11-21T09:24:28;10.93;;;6.20;;
73550;SDS011;61816;53.582;10.096;2023-11-21T09:26:53;8.73;;;5.65;;
73550;SDS011;61816;53.582;10.096;2023-11-21T09:29:19;11.07;;;5.47;;
73550;SDS011;61816;53.582;10.096;2023-11-21T09:31:44;10.98;;;5.50;;
73550;SDS011;61816;53.582;10.096;2023-11-21T09:34:10;8.85;;;5.30;;
73550;SDS011;61816;53.582;10.096;2023-11-21T09:36:36;7.85;;;5.13;;
73550;SDS011;61816;53.582;10.096;2023-11-21T09:39:04;7.45;;;4.80;;
73550;SDS011;61816;53.582;10.096;2023-11-21T09:44:34;8.25;;;5.10;;
73550;SDS011;61816;53.582;10.096;2023-11-21T09:47:02;13.07;;;6.22;;
73550;SDS011;61816;53.582;10.096;2023-11-21T09:49:28;9.10;;;5.85;;
73550;SDS011;61816;53.582;10.096;2023-11-21T09:51:59;11.10;;;5.78;;
73550;SDS011;61816;53.582;10.096;2023-11-21T09:54:28;10.00;;;6.25;;
73550;SDS011;61816;53.582;10.096;2023-11-21T09:56:54;13.23;;;5.90;;
73550;SDS011;61816;53.582;10.096;2023-11-21T09:59:20;11.30;;;6.03;;
73550;SDS011;61816;53.582;10.096;2023-11-21T10:01:46;14.15;;;5.72;;
73550;SDS011;61816;53.582;10.096;2023-11-21T10:04:13;10.40;;;5.78;;
73550;SDS011;61816;53.582;10.096;2023-11-21T10:06:41;9.35;;;4.97;;
73550;SDS011;61816;53.582;10.096;2023-11-21T10:09:10;8.05;;;4.75;;
73550;SDS011;61816;53.582;10.096;2023-11-21T10:11:39;9.27;;;5.45;;
73550;SDS011;61816;53.582;10.096;2023-11-21T10:14:07;15.52;;;5.63;;
73550;SDS011;61816;53.582;10.096;2023-11-21T10:16:35;10.00;;;5.95;;
73550;SDS011;61816;53.582;10.096;2023-11-21T10:19:02;12.20;;;5.25;;
73550;SDS011;61816;53.582;10.096;2023-11-21T10:21:28;12.27;;;4.97;;
73550;SDS011;61816;53.582;10.096;2023-11-21T10:23:54;8.73;;;4.78;;
73550;SDS011;61816;53.582;10.096;2023-11-21T10:26:20;10.10;;;4.95;;
73550;SDS011;61816;53.582;10.096;2023-11-21T10:28:55;9.77;;;5.57;;
73550;SDS011;61816;53.582;10.096;2023-11-21T10:31:22;9.20;;;4.80;;
73550;SDS011;61816;53.582;10.096;2023-11-21T10:33:49;9.07;;;4.53;;
73550;SDS011;61816;53.582;10.096;2023-11-21T10:36:24;7.50;;;4.78;;
73550;SDS011;61816;53.582;10.096;2023-11-21T10:38:51;8.15;;;4.82;;
73550;SDS011;61816;53.582;10.096;2023-11-21T10:41:18;9.73;;;4.07;;
73550;SDS011;61816;53.582;10.096;2023-11-21T10:43:45;11.40;;;4.10;;
73550;SDS011;61816;53.582;10.096;2023-11-21T10:46:10;8.15;;;3.88;;
73550;SDS011;61816;53.582;10.096;2023-11-21T10:48:35;17.00;;;4.78;;
73550;SDS011;61816;53.582;10.096;2023-11-21T10:51:01;10.27;;;4.07;;
73550;SDS011;61816;53.582;10.096;2023-11-21T10:53:32;7.97;;;4.22;;
73550;SDS011;61816;53.582;10.096;2023-11-21T10:56:05;8.68;;;4.32;;
73550;SDS011;61816;53.582;10.096;2023-11-21T10:58:33;6.35;;;4.20;;
73550;SDS011;61816;53.582;10.096;2023-11-21T11:01:01;7.93;;;4.15;;
73550;SDS011;61816;53.582;10.096;2023-11-21T11:03:29;7.47;;;4.50;;
73550;SDS011;61816;53.582;10.096;2023-11-21T11:05:58;13.27;;;5.55;;
73550;SDS011;61816;53.582;10.096;2023-11-21T11:08:24;6.80;;;4.20;;
73550;SDS011;61816;53.582;10.096;2023-11-21T11:10:52;11.43;;;4.47;;
73550;SDS011;61816;53.582;10.096;2023-11-21T11:13:18;10.40;;;4.28;;
73550;SDS011;61816;53.582;10.096;2023-11-21T11:15:46;8.60;;;4.18;;
73550;SDS011;61816;53.582;10.096;2023-11-21T11:18:12;7.03;;;4.38;;
73550;SDS011;61816;53.582;10.096;2023-11-21T11:20:38;6.75;;;4.30;;
73550;SDS011;61816;53.582;10.096;2023-11-21T11:25:57;8.73;;;4.20;;
73550;SDS011;61816;53.582;10.096;2023-11-21T11:28:44;11.93;;;4.30;;
73550;SDS011;61816;53.582;10.096;2023-11-21T11:34:06;8.85;;;3.95;;
73550;SDS011;61816;53.582;10.096;2023-11-21T11:42:05;6.88;;;4.15;;
73550;SDS011;61816;53.582;10.096;2023-11-21T11:47:14;7.22;;;4.25;;
73550;SDS011;61816;53.582;10.096;2023-11-21T11:55:12;8.07;;;3.80;;
73550;SDS011;61816;53.582;10.096;2023-11-21T11:57:39;6.75;;;4.55;;
73550;SDS011;61816;53.582;10.096;2023-11-21T12:02:54;8.80;;;4.15;;
73550;SDS011;61816;53.582;10.096;2023-11-21T12:05:27;11.07;;;3.90;;
73550;SDS011;61816;53.582;10.096;2023-11-21T12:07:53;10.50;;;4.50;;
73550;SDS011;61816;53.582;10.096;2023-11-21T12:10:20;10.15;;;4.50;;
73550;SDS011;61816;53.582;10.096;2023-11-21T12:12:56;7.53;;;4.28;;
73550;SDS011;61816;53.582;10.096;2023-11-21T12:15:23;8.52;;;4.15;;
73550;SDS011;61816;53.582;10.096;2023-11-21T12:17:50;11.10;;;3.45;;
73550;SDS011;61816;53.582;10.096;2023-11-21T12:20:21;9.30;;;4.32;;
73550;SDS011;61816;53.582;10.096;2023-11-21T12:22:49;6.97;;;4.15;;
73550;SDS011;61816;53.582;10.096;2023-11-21T12:25:17;8.77;;;4.00;;
73550;SDS011;61816;53.582;10.096;2023-11-21T12:27:50;10.23;;;3.63;;
73550;SDS011;61816;53.582;10.096;2023-11-21T12:30:20;9.55;;;4.13;;
73550;SDS011;61816;53.582;10.096;2023-11-21T12:32:50;7.97;;;4.15;;
73550;SDS011;61816;53.582;10.096;2023-11-21T12:35:17;8.02;;;4.15;;
73550;SDS011;61816;53.582;10.096;2023-11-21T12:37:46;9.18;;;4.30;;
73550;SDS011;61816;53.582;10.096;2023-11-21T12:40:13;10.05;;;3.85;;
73550;SDS011;61816;53.582;10.096;2023-11-21T12:42:43;7.57;;;3.75;;
73550;SDS011;61816;53.582;10.096;2023-11-21T12:45:22;7.28;;;3.90;;
73550;SDS011;61816;53.582;10.096;2023-11-21T12:50:26;14.60;;;4.40;;
73550;SDS011;61816;53.582;10.096;2023-11-21T12:52:54;7.72;;;4.00;;
73550;SDS011;61816;53.582;10.096;2023-11-21T12:55:23;6.30;;;3.95;;
73550;SDS011;61816;53.582;10.096;2023-11-21T12:57:50;8.68;;;4.60;;
73550;SDS011;61816;53.582;10.096;2023-11-21T13:00:19;8.57;;;3.97;;
73550;SDS011;61816;53.582;10.096;2023-11-21T13:02:55;8.82;;;3.78;;
73550;SDS011;61816;53.582;10.096;2023-11-21T13:05:28;7.55;;;3.97;;
73550;SDS011;61816;53.582;10.096;2023-11-21T13:07:54;11.63;;;4.40;;
73550;SDS011;61816;53.582;10.096;2023-11-21T13:10:26;7.13;;;3.85;;
73550;SDS011;61816;53.582;10.096;2023-11-21T13:12:56;6.78;;;3.65;;
73550;SDS011;61816;53.582;10.096;2023-11-21T13:15:30;9.98;;;4.32;;
73550;SDS011;61816;53.582;10.096;2023-11-21T13:17:58;5.40;;;3.90;;
73550;SDS011;61816;53.582;10.096;2023-11-21T13:20:26;9.48;;;4.03;;
73550;SDS011;61816;53.582;10.096;2023-11-21T13:22:53;6.97;;;4.10;;
73550;SDS011;61816;53.582;10.096;2023-11-21T13:25:20;8.38;;;4.65;;
73550;SDS011;61816;53.582;10.096;2023-11-21T13:27:46;8.90;;;4.15;;
73550;SDS011;61816;53.582;10.096;2023-11-21T13:30:12;9.73;;;4.65;;
73550;SDS011;61816;53.582;10.096;2023-11-21T13:32:41;8.68;;;4.35;;
73550;SDS011;61816;53.582;10.096;2023-11-21T13:35:07;8.75;;;4.28;;
73550;SDS011;61816;53.582;10.096;2023-11-21T13:37:37;9.13;;;4.68;;
73550;SDS011;61816;53.582;10.096;2023-11-21T13:40:03;7.43;;;4.68;;
73550;SDS011;61816;53.582;10.096;2023-11-21T13:42:34;10.90;;;5.30;;
73550;SDS011;61816;53.582;10.096;2023-11-21T13:45:00;9.95;;;4.50;;
73550;SDS011;61816;53.582;10.096;2023-11-21T13:47:25;9.20;;;4.07;;
73550;SDS011;61816;53.582;10.096;2023-11-21T13:49:54;8.23;;;4.18;;
73550;SDS011;61816;53.582;10.096;2023-11-21T13:52:20;6.63;;;4.18;;
73550;SDS011;61816;53.582;10.096;2023-11-21T13:54:48;6.97;;;4.10;;
73550;SDS011;61816;53.582;10.096;2023-11-21T13:57:13;7.00;;;4.18;;
73550;SDS011;61816;53.582;10.096;2023-11-21T13:59:38;6.53;;;4.13;;
73550;SDS011;61816;53.582;10.096;2023-11-21T14:02:04;9.82;;;3.95;;
73550;SDS011;61816;53.582;10.096;2023-11-21T14:04:43;12.65;;;7.22;;
73550;SDS011;61816;53.582;10.096;2023-11-21T14:07:14;8.07;;;4.57;;
73550;SDS011;61816;53.582;10.096;2023-11-21T14:09:51;9.75;;;4.30;;
73550;SDS011;61816;53.582;10.096;2023-11-21T14:12:18;10.63;;;4.53;;
73550;SDS011;61816;53.582;10.096;2023-11-21T14:14:43;8.40;;;4.05;;
73550;SDS011;61816;53.582;10.096;2023-11-21T14:17:10;9.98;;;4.25;;
73550;SDS011;61816;53.582;10.096;2023-11-21T14:19:35;6.65;;;4.18;;
73550;SDS011;61816;53.582;10.096;2023-11-21T14:22:05;8.68;;;4.57;;
73550;SDS011;61816;53.582;10.096;2023-11-21T14:24:31;7.85;;;4.38;;
73550;SDS011;61816;53.582;10.096;2023-11-21T14:26:57;8.25;;;4.63;;
73550;SDS011;61816;53.582;10.096;2023-11-21T14:29:23;17.50;;;5.13;;
73550;SDS011;61816;53.582;10.096;2023-11-21T14:31:48;9.90;;;4.68;;
73550;SDS011;61816;53.582;10.096;2023-11-21T14:34:21;7.78;;;4.20;;
73550;SDS011;61816;53.582;10.096;2023-11-21T14:36:47;6.68;;;3.95;;
73550;SDS011;61816;53.582;10.096;2023-11-21T14:39:14;8.98;;;4.90;;
73550;SDS011;61816;53.582;10.096;2023-11-21T14:41:51;9.40;;;4.65;;
73550;SDS011;61816;53.582;10.096;2023-11-21T14:44:18;9.88;;;4.38;;
73550;SDS011;61816;53.582;10.096;2023-11-21T14:46:43;6.70;;;3.75;;